BKBT2: Red River, Burkburnett

                                SHEF ID:       BKBT2     Red Rv nr Burkburnett, TX
STATION TYPE:
Regulating: Stage = 9.00, Flow = 17010

PRECIP STAGE RIV-FLOW BAT-LOAD
in ft cfs volt
Ccp-Rev Ccp-Rev Ccp-Rev Ccp-Rev
(America/Chicago)
04/04 00:00 ---- 3.30 221 12.61
04/04 01:00 ---- 3.27 212 12.60
04/04 02:00 ---- 3.33 230 12.57
04/04 03:00 ---- 3.30 221 12.57
04/04 04:00 ---- 3.28 215 12.54
04/04 05:00 ---- 3.25 206 12.52
04/04 06:00 ---- 3.25 206 12.50
04/04 07:00 ---- 3.25 206 12.49
04/04 08:00 ---- 3.30 221 12.45
04/04 09:00 ---- 3.41 256 13.05
04/04 10:00 ---- 3.66 349 13.87
04/04 11:00 ---- 3.86 441 13.87
04/04 12:00 ---- 3.98 504 13.85
04/04 13:00 ---- 4.04 537 13.84
04/04 14:00 ---- 4.09 566 13.82
04/04 15:00 ---- 4.05 543 13.81
04/04 16:00 ---- 4.06 549 13.75
04/04 17:00 ---- 4.02 526 13.70
04/04 18:00 ---- 4.04 537 13.67
04/04 19:00 ---- 4.05 543 13.60
04/04 20:00 ---- 4.07 555 13.19
04/04 21:00 ---- 4.10 572 12.93
04/04 22:00 ---- 4.11 578 12.80
04/04 23:00 ---- 4.13 589 12.69
Data processed at Sun 05Apr2026 04:44 GMT

NOTICE: If you are parsing this page

Please convert to using our Data API. Starting early 2026 we will be migrating to: https://water.usace.army.mil with modern pages rendered in JavaScript. When this migration completes you will no longer be able to scrape this page! CWMSDataAPI (CDA)

Timeseries IDs (TSIDs)

TSIDs used from left to right in the data table
BURK.Precip-Inc.Total.1Hour.1Hour.Ccp-Rev
BURK.Stage.Inst.1Hour.0.Ccp-Rev
BURK.Flow.Inst.1Hour.0.Ccp-Rev
BURK.Volt-Battery Load.Inst.1Hour.0.Ccp-Rev

                            

All information presented herein is the property of the government of the United States of America and may be revised or deleted at any time without prior notice. Dissemination of this information without the expressed written consent of the Public Affairs Office, Tulsa District U.S. Army Corps of Engineers is strictly prohibited. These data are gathered electronically and, as presented, have NOT undergone any form of quality control. These data are NOT guaranteed to be valid or correct.